KLSF/LSF METAR and TAF weather

Enter ICAO airport designator
Station Type Date Time Source
KLSF METAR 2022/01/29 10:56 UTC NOAA

KLSF 291056Z AUTO 30010KT 10SM CLR M02/M11 A3018 RMK AO2 SLP227 T10201111


Station Type Date Time Source
KLSF Decoded METAR 2022/01/29 10:56 UTC NOAA

Fort Benning, GA, United States (KLSF) 32-20N 084-50W 130M
Jan 29, 2022 - 05:56 AM EST / 2022.01.29 1056 UTC
Wind: from the WNW (300 degrees) at 12 MPH (10 KT):0
Visibility: 10 mile(s):0
Sky conditions: clear
Temperature: 28.4 F (-2.0 C)
Windchill: 17 F (-8 C):1
Dew Point: 12.0 F (-11.1 C)
Relative Humidity: 49%
Pressure (altimeter): 30.18 in. Hg (1022 hPa)
ob: KLSF 291056Z AUTO 30010KT 10SM CLR M02/M11 A3018 RMK AO2 SLP227 T10201111
cycle: 11

Station Type Date Time Source
KLSF TAF 2022/01/28 22:06 UTC NOAA

TAF TAF KLSF 282200Z 2822/3004 30012G20KT 9999 FEW060 SCT080 520102 QNH2998INS
TEMPO 2823/2903 33015G25KT
BECMG 2902/2903 33012G20KT 9999 SKC QNH3004INS
BECMG 2915/2916 31012KT 9999 SKC QNH3018INS TX12/2822Z TNM05/2910Z LAST NO
AMDS AFT 2904 NEXT 3114

Example: see airport list